Time;durP1;ratioP1;P1;durP2;ratioP2;P2;SDS_P1;SDS_P2;PMS_P1;PMS_P2;Temp;Humidity;BMP_temperature;BMP_pressure;BME280_temperature;BME280_humidity;BME280_pressure;Samples;Min_cycle;Max_cycle;Signal;HPM_P1;HPM_P2
2022/12/31 00:02:05;;;;;;;17.67;9.75;;;11.30;99.90;;;;;;5058794;28;20017;-72
2022/12/31 00:04:30;;;;;;;16.40;9.32;;;11.40;99.90;;;;;;5058142;28;20037;-69
2022/12/31 00:06:56;;;;;;;18.38;7.70;;;11.40;99.90;;;;;;5058281;28;20028;-72
2022/12/31 00:09:22;;;;;;;19.27;9.93;;;11.40;99.90;;;;;;5040299;28;20029;-71
2022/12/31 00:11:47;;;;;;;19.63;10.13;;;11.40;99.90;;;;;;5058024;28;20579;-70
2022/12/31 00:14:13;;;;;;;20.88;9.70;;;11.40;99.90;;;;;;5040793;28;20036;-72
2022/12/31 00:16:40;;;;;;;15.68;8.98;;;11.50;99.90;;;;;;5056243;28;20032;-73
2022/12/31 00:19:08;;;;;;;15.20;9.07;;;11.50;99.90;;;;;;5039931;28;20035;-70
2022/12/31 00:21:35;;;;;;;14.32;8.27;;;11.40;99.90;;;;;;5051078;28;20079;-70
2022/12/31 00:24:03;;;;;;;20.13;9.48;;;11.50;99.90;;;;;;5051218;28;20017;-72
2022/12/31 00:26:30;;;;;;;14.57;8.38;;;11.50;99.90;;;;;;5051348;28;20037;-72
2022/12/31 00:28:58;;;;;;;15.25;8.10;;;11.60;99.90;;;;;;5041270;28;20373;-70
2022/12/31 00:31:25;;;;;;;14.43;7.63;;;11.60;99.90;;;;;;5057891;28;20118;-70
2022/12/31 00:33:51;;;;;;;18.60;9.32;;;11.50;99.90;;;;;;5059364;28;20036;-71
2022/12/31 00:36:18;;;;;;;18.83;8.93;;;11.60;99.90;;;;;;5059650;28;20060;-69
2022/12/31 00:38:46;;;;;;;19.17;8.73;;;11.60;99.90;;;;;;5058011;28;20116;-70
2022/12/31 00:41:12;;;;;;;14.02;7.72;;;11.70;99.90;;;;;;5057983;28;20013;-68
2022/12/31 00:43:38;;;;;;;18.77;10.02;;;11.70;99.90;;;;;;5053226;28;20026;-68
2022/12/31 00:46:05;;;;;;;14.40;6.93;;;11.70;99.90;;;;;;5046954;28;20029;-70
2022/12/31 00:48:33;;;;;;;17.45;8.25;;;11.70;99.90;;;;;;5056653;28;20733;-72
2022/12/31 00:51:01;;;;;;;15.25;8.23;;;11.70;99.90;;;;;;5058803;28;20017;-71
2022/12/31 00:53:27;;;;;;;16.63;8.50;;;11.80;99.90;;;;;;5057526;28;20055;-69
2022/12/31 00:56:03;;;;;;;16.88;8.82;;;11.80;99.90;;;;;;5041611;28;20025;-70
2022/12/31 00:58:29;;;;;;;14.00;7.93;;;11.80;99.90;;;;;;5057996;28;20025;-75
2022/12/31 01:00:55;;;;;;;15.55;8.38;;;11.80;99.90;;;;;;5058612;28;20021;-72
2022/12/31 01:03:21;;;;;;;14.07;7.63;;;11.80;99.90;;;;;;5057861;28;20017;-70
2022/12/31 01:05:47;;;;;;;16.70;8.40;;;11.80;99.90;;;;;;5058829;28;20076;-72
2022/12/31 01:08:12;;;;;;;14.15;8.43;;;11.80;99.90;;;;;;5057893;28;20021;-70
2022/12/31 01:13:22;;;;;;;14.82;8.65;;;11.90;99.90;;;;;;5057961;28;20040;-73
2022/12/31 01:15:48;;;;;;;16.02;9.35;;;11.70;99.90;;;;;;5058525;28;20009;-70
2022/12/31 01:18:13;;;;;;;15.05;8.65;;;11.70;99.90;;;;;;5058395;28;20037;-70
2022/12/31 01:20:42;;;;;;;18.13;9.73;;;11.70;99.90;;;;;;5057295;28;20089;-71
2022/12/31 01:23:09;;;;;;;18.63;8.18;;;11.60;99.90;;;;;;5046070;28;20045;-67
2022/12/31 01:25:40;;;;;;;23.23;10.35;;;11.60;99.90;;;;;;5049692;28;20021;-69
2022/12/31 01:28:07;;;;;;;17.73;9.90;;;11.50;99.90;;;;;;5056629;28;20052;-68
2022/12/31 01:30:32;;;;;;;21.15;10.57;;;11.50;99.90;;;;;;5052784;28;20037;-68
2022/12/31 01:32:58;;;;;;;23.67;11.23;;;11.40;99.90;;;;;;5052674;28;20097;-70
2022/12/31 01:35:24;;;;;;;27.13;13.45;;;11.40;99.90;;;;;;5042604;28;20029;-66
2022/12/31 01:37:50;;;;;;;26.05;11.60;;;11.40;99.90;;;;;;5055381;28;20026;-69
2022/12/31 01:40:16;;;;;;;22.35;12.65;;;11.30;99.90;;;;;;5057202;28;20035;-67
2022/12/31 01:42:41;;;;;;;34.08;16.52;;;11.30;99.90;;;;;;5052207;28;20079;-69
2022/12/31 01:45:10;;;;;;;32.40;16.38;;;11.30;99.90;;;;;;5049512;28;20025;-68
2022/12/31 01:47:41;;;;;;;37.45;16.02;;;11.30;99.90;;;;;;5049998;28;20043;-68
2022/12/31 01:50:14;;;;;;;28.77;13.48;;;11.30;99.90;;;;;;5042471;28;20051;-68
2022/12/31 01:52:43;;;;;;;28.90;13.50;;;11.30;99.90;;;;;;5052415;28;20033;-66
2022/12/31 01:55:41;;;;;;;27.70;13.55;;;11.30;99.90;;;;;;5048149;28;20104;-68
2022/12/31 01:58:14;;;;;;;29.13;13.82;;;11.30;99.90;;;;;;5050183;28;20033;-68
2022/12/31 02:00:40;;;;;;;27.60;13.88;;;11.20;99.90;;;;;;5062290;28;20048;-67
2022/12/31 02:03:07;;;;;;;32.65;14.13;;;11.20;99.90;;;;;;5056187;28;20033;-69
2022/12/31 02:05:45;;;;;;;28.17;13.27;;;11.20;99.90;;;;;;5063521;28;20089;-66
2022/12/31 02:08:11;;;;;;;25.95;12.98;;;11.20;99.90;;;;;;5063174;28;20021;-66
2022/12/31 02:10:37;;;;;;;37.90;14.18;;;11.10;99.90;;;;;;5063238;28;20029;-69
2022/12/31 02:13:03;;;;;;;38.83;13.57;;;11.10;99.90;;;;;;5062510;28;20033;-69
2022/12/31 02:15:49;;;;;;;30.20;14.07;;;11.10;99.90;;;;;;5063051;28;20047;-68
2022/12/31 02:18:33;;;;;;;24.08;11.88;;;11.10;99.90;;;;;;5045128;28;20021;-68
2022/12/31 02:21:17;;;;;;;22.33;11.50;;;11.10;99.90;;;;;;5045207;28;20061;-67
2022/12/31 02:23:43;;;;;;;26.65;12.10;;;11.10;99.90;;;;;;5048553;28;20034;-66
2022/12/31 02:26:20;;;;;;;25.20;12.15;;;11.10;99.90;;;;;;5055813;28;20029;-68
2022/12/31 02:29:31;;;;;;;24.58;12.60;;;11.20;99.90;;;;;;5061548;28;20025;-68
2022/12/31 02:32:05;;;;;;;26.10;13.15;;;11.20;99.90;;;;;;5044303;28;20087;-66
2022/12/31 02:34:40;;;;;;;22.75;10.85;;;11.20;99.90;;;;;;5061396;28;20115;-67
2022/12/31 02:37:11;;;;;;;24.63;12.20;;;11.30;99.90;;;;;;5061257;28;20033;-67
2022/12/31 02:39:38;;;;;;;15.98;9.50;;;11.40;99.90;;;;;;5061283;28;20351;-66
2022/12/31 02:42:04;;;;;;;17.67;9.95;;;11.30;99.90;;;;;;5061339;28;20033;-69
2022/12/31 02:44:33;;;;;;;21.83;11.25;;;11.40;99.90;;;;;;5061482;28;20048;-70
2022/12/31 02:47:08;;;;;;;23.80;12.15;;;11.40;99.90;;;;;;5061678;28;20076;-68
2022/12/31 02:50:18;;;;;;;16.15;9.38;;;11.40;99.90;;;;;;5060950;28;20055;-69
2022/12/31 02:53:19;;;;;;;24.75;12.15;;;11.40;99.90;;;;;;5051672;28;20060;-68
2022/12/31 02:55:52;;;;;;;19.00;10.27;;;11.50;99.90;;;;;;5061320;28;20041;-68
2022/12/31 02:58:20;;;;;;;23.13;11.82;;;11.40;99.90;;;;;;5061154;28;20029;-68
2022/12/31 03:03:38;;;;;;;18.02;9.50;;;11.50;99.90;;;;;;5061455;28;20468;-69
2022/12/31 03:06:07;;;;;;;18.00;9.35;;;11.50;99.90;;;;;;5060639;28;20123;-68
2022/12/31 03:09:11;;;;;;;16.58;9.50;;;11.40;99.90;;;;;;5060228;28;20029;-70
2022/12/31 03:12:45;;;;;;;20.35;9.73;;;11.50;99.90;;;;;;5056927;28;20036;-67
2022/12/31 03:14:04;;;;;;;17.02;9.52;;;11.40;99.90;;;;;;5054291;28;20047;-67
2022/12/31 03:16:30;;;;;;;16.75;9.25;;;11.40;99.90;;;;;;5051356;28;20057;-67
2022/12/31 03:27:29;;;;;;;14.20;8.93;;;11.40;99.90;;;;;;5028324;28;20048;-68
2022/12/31 03:29:55;;;;;;;15.68;9.15;;;11.40;99.90;;;;;;5028379;28;20072;-67
2022/12/31 03:32:20;;;;;;;14.88;9.25;;;11.40;99.90;;;;;;5032274;28;20049;-68
2022/12/31 03:34:46;;;;;;;14.73;7.97;;;11.40;99.90;;;;;;5050484;28;20038;-66
2022/12/31 03:37:11;;;;;;;18.33;9.15;;;11.40;99.90;;;;;;5051697;28;20036;-70
2022/12/31 03:39:37;;;;;;;19.02;8.55;;;11.40;99.90;;;;;;5055710;28;20420;-68
2022/12/31 03:42:03;;;;;;;17.52;8.93;;;11.40;99.90;;;;;;5061597;28;20021;-70
2022/12/31 03:44:29;;;;;;;16.30;8.48;;;11.40;99.90;;;;;;5057467;28;20113;-69
2022/12/31 03:46:55;;;;;;;18.95;9.32;;;11.40;99.90;;;;;;5054332;28;20033;-68
2022/12/31 03:49:20;;;;;;;17.65;8.85;;;11.40;99.90;;;;;;5059810;28;20067;-69
2022/12/31 03:51:46;;;;;;;17.13;8.68;;;11.40;99.90;;;;;;5060170;28;20068;-69
2022/12/31 03:54:11;;;;;;;14.68;8.00;;;11.40;99.90;;;;;;5059118;28;20067;-68
2022/12/31 03:56:39;;;;;;;17.95;7.38;;;11.30;99.90;;;;;;5049481;28;20017;-68
2022/12/31 03:59:04;;;;;;;19.02;7.95;;;11.30;99.90;;;;;;5053727;28;20089;-70
2022/12/31 04:01:30;;;;;;;14.75;7.70;;;11.30;99.90;;;;;;5051211;28;20067;-68
2022/12/31 04:03:56;;;;;;;12.70;7.55;;;11.30;99.90;;;;;;5040861;28;20044;-68
2022/12/31 04:06:21;;;;;;;10.55;6.07;;;11.30;99.90;;;;;;5042110;28;20029;-69
2022/12/31 04:08:47;;;;;;;9.05;5.35;;;11.30;99.90;;;;;;5059201;28;20470;-68
2022/12/31 04:11:12;;;;;;;12.48;5.13;;;11.30;99.90;;;;;;5042265;28;20035;-69
2022/12/31 04:13:38;;;;;;;16.77;5.28;;;11.30;99.90;;;;;;5058579;28;20049;-68
2022/12/31 04:16:03;;;;;;;12.32;5.25;;;11.30;99.90;;;;;;5059766;28;20033;-70
2022/12/31 04:18:30;;;;;;;8.35;5.07;;;11.20;99.90;;;;;;5059097;28;20028;-69
2022/12/31 04:21:04;;;;;;;11.05;4.97;;;11.20;99.90;;;;;;5058642;28;20033;-69
2022/12/31 04:23:30;;;;;;;11.35;4.68;;;11.20;99.90;;;;;;5058458;28;20029;-69
2022/12/31 04:25:56;;;;;;;6.15;4.15;;;11.20;99.90;;;;;;5058265;28;20049;-71
2022/12/31 04:28:22;;;;;;;9.93;3.78;;;11.10;99.90;;;;;;5042078;28;20806;-70
2022/12/31 04:30:47;;;;;;;10.48;3.50;;;11.10;99.90;;;;;;5052914;28;20029;-69
2022/12/31 04:33:13;;;;;;;10.20;3.25;;;11.10;99.90;;;;;;5053517;28;20170;-69
2022/12/31 04:35:39;;;;;;;6.32;3.03;;;11.10;99.90;;;;;;5047691;28;20026;-70
2022/12/31 04:38:05;;;;;;;7.32;3.15;;;11.00;99.90;;;;;;5057061;28;20095;-68
2022/12/31 04:40:31;;;;;;;5.18;3.00;;;11.00;99.90;;;;;;5050302;28;20021;-67
2022/12/31 04:42:56;;;;;;;8.23;3.60;;;11.00;99.90;;;;;;5052416;28;20033;-68
2022/12/31 04:45:22;;;;;;;7.78;3.50;;;11.00;99.90;;;;;;5053027;28;20052;-68
2022/12/31 04:47:47;;;;;;;6.55;3.53;;;11.00;99.90;;;;;;5047126;28;20022;-68
2022/12/31 04:50:19;;;;;;;8.73;3.92;;;11.00;99.90;;;;;;5058297;28;20042;-69
2022/12/31 04:52:44;;;;;;;8.68;4.22;;;10.90;99.90;;;;;;5057704;28;20037;-68
2022/12/31 04:55:10;;;;;;;6.28;3.92;;;10.90;99.90;;;;;;5050386;28;20025;-69
2022/12/31 04:57:36;;;;;;;11.25;4.70;;;10.90;99.90;;;;;;5050775;28;20048;-68
2022/12/31 05:00:02;;;;;;;7.50;3.90;;;10.90;99.90;;;;;;5056345;28;20033;-69
2022/12/31 05:02:29;;;;;;;7.28;4.40;;;10.80;99.90;;;;;;5028816;28;20079;-69
2022/12/31 05:04:55;;;;;;;7.57;3.60;;;10.80;99.90;;;;;;5047648;28;20021;-68
2022/12/31 05:07:20;;;;;;;5.68;3.85;;;10.80;99.90;;;;;;5049826;28;20021;-67
2022/12/31 05:09:46;;;;;;;9.43;4.60;;;10.80;99.90;;;;;;5037825;28;20113;-70
2022/12/31 05:12:11;;;;;;;8.18;4.20;;;10.80;99.90;;;;;;5039673;28;20076;-70
2022/12/31 05:14:37;;;;;;;8.40;4.10;;;10.80;99.90;;;;;;5051180;28;20021;-70
2022/12/31 05:17:02;;;;;;;7.63;3.78;;;10.80;99.90;;;;;;5050405;28;20079;-69
2022/12/31 05:19:28;;;;;;;6.03;3.50;;;10.80;99.90;;;;;;5050013;28;20046;-68
2022/12/31 05:24:39;;;;;;;6.18;3.15;;;10.80;99.90;;;;;;5051193;28;20054;-69
2022/12/31 05:27:04;;;;;;;5.07;2.40;;;10.70;99.90;;;;;;5040288;28;20093;-69
2022/12/31 05:29:30;;;;;;;6.30;2.40;;;10.70;99.90;;;;;;5049361;28;20040;-72
2022/12/31 05:31:55;;;;;;;6.43;2.38;;;10.70;99.90;;;;;;5045175;28;20044;-70
2022/12/31 05:34:21;;;;;;;2.65;1.80;;;10.70;99.90;;;;;;5063207;28;20040;-70
2022/12/31 05:36:46;;;;;;;6.40;1.65;;;10.70;99.90;;;;;;5065435;28;20033;-70
2022/12/31 05:39:12;;;;;;;3.33;1.52;;;10.70;99.90;;;;;;5065380;28;20036;-68
2022/12/31 05:41:38;;;;;;;6.05;1.80;;;10.70;99.90;;;;;;5065693;28;20028;-70
2022/12/31 05:44:04;;;;;;;3.42;1.60;;;10.70;99.90;;;;;;5065857;28;20065;-70
2022/12/31 05:46:29;;;;;;;3.83;1.50;;;10.70;99.90;;;;;;5065513;28;20040;-71
2022/12/31 05:48:55;;;;;;;5.03;1.67;;;10.60;99.90;;;;;;5053132;28;20028;-69
2022/12/31 05:51:20;;;;;;;6.65;2.00;;;10.60;99.90;;;;;;5064744;28;20027;-69
2022/12/31 05:53:46;;;;;;;4.10;1.67;;;10.60;99.90;;;;;;5065722;28;20060;-69
2022/12/31 05:56:11;;;;;;;3.55;1.70;;;10.60;99.90;;;;;;5065764;28;20017;-68
2022/12/31 05:58:37;;;;;;;5.18;1.90;;;10.60;99.90;;;;;;5066242;28;20025;-69
2022/12/31 06:01:03;;;;;;;3.92;1.85;;;10.60;99.90;;;;;;5066026;28;20051;-69
2022/12/31 06:03:28;;;;;;;2.63;1.65;;;10.60;99.90;;;;;;5065324;28;20025;-69
2022/12/31 06:05:54;;;;;;;4.18;1.48;;;10.60;99.90;;;;;;5054139;28;20080;-70
2022/12/31 06:08:19;;;;;;;3.35;1.75;;;10.60;99.90;;;;;;5065249;28;20032;-68
2022/12/31 06:10:45;;;;;;;5.18;2.17;;;10.60;99.90;;;;;;5062989;28;20049;-68
2022/12/31 06:13:10;;;;;;;7.18;2.10;;;10.60;99.90;;;;;;5064930;28;20051;-70
2022/12/31 06:15:38;;;;;;;10.63;2.83;;;10.60;99.90;;;;;;5049649;28;20120;-68
2022/12/31 06:18:04;;;;;;;6.82;2.20;;;10.60;99.90;;;;;;5053001;28;20030;-68
2022/12/31 06:20:30;;;;;;;5.55;2.72;;;10.60;99.90;;;;;;5053737;28;20448;-71
2022/12/31 06:22:55;;;;;;;10.77;2.90;;;10.60;99.90;;;;;;5053400;28;20068;-67
2022/12/31 06:25:21;;;;;;;11.90;2.45;;;10.60;99.90;;;;;;5052758;28;20029;-67
2022/12/31 06:27:46;;;;;;;9.85;3.03;;;10.60;99.90;;;;;;5053953;28;20059;-68
2022/12/31 06:30:13;;;;;;;6.45;3.20;;;10.60;99.90;;;;;;5053917;28;20029;-67
2022/12/31 06:32:39;;;;;;;13.70;3.50;;;10.60;99.90;;;;;;5054700;28;20129;-68
2022/12/31 06:35:06;;;;;;;6.28;3.15;;;10.60;99.90;;;;;;5053778;28;20429;-70
2022/12/31 06:37:31;;;;;;;7.63;4.20;;;10.60;99.90;;;;;;5054088;28;20029;-69
2022/12/31 06:39:57;;;;;;;15.65;4.90;;;10.60;99.90;;;;;;5052878;28;20108;-69
2022/12/31 06:42:23;;;;;;;12.32;5.82;;;10.60;99.90;;;;;;5052494;28;20067;-67
2022/12/31 06:44:48;;;;;;;10.57;4.70;;;10.60;99.90;;;;;;5052352;28;21115;-68
2022/12/31 06:47:14;;;;;;;6.80;3.70;;;10.60;99.90;;;;;;5052410;28;20033;-67
2022/12/31 06:49:39;;;;;;;9.32;4.50;;;10.60;99.90;;;;;;5054090;28;20100;-68
2022/12/31 06:52:05;;;;;;;15.68;4.57;;;10.60;99.90;;;;;;5053622;28;20041;-69
2022/12/31 06:54:34;;;;;;;12.75;4.28;;;10.60;99.90;;;;;;5053448;28;20029;-70
2022/12/31 06:57:00;;;;;;;9.13;4.40;;;10.60;99.90;;;;;;5054016;28;20036;-69
2022/12/31 06:59:28;;;;;;;9.13;4.55;;;10.60;99.90;;;;;;5052293;28;20085;-70
2022/12/31 07:02:20;;;;;;;11.57;4.43;;;10.60;99.90;;;;;;5054904;28;20021;-67
2022/12/31 07:05:10;;;;;;;12.43;4.57;;;10.50;99.90;;;;;;5054310;28;20140;-69
2022/12/31 07:07:44;;;;;;;9.07;4.60;;;10.50;99.90;;;;;;5055655;28;20474;-69
2022/12/31 07:10:53;;;;;;;11.35;4.88;;;10.60;99.90;;;;;;5053943;28;20021;-69
2022/12/31 07:13:45;;;;;;;9.80;5.32;;;10.50;99.90;;;;;;5025683;28;20056;-69
2022/12/31 07:16:41;;;;;;;10.88;5.07;;;10.50;99.90;;;;;;5051970;28;20061;-69
2022/12/31 07:19:15;;;;;;;9.68;4.40;;;10.50;99.90;;;;;;5054277;28;20048;-68
2022/12/31 07:21:44;;;;;;;11.82;5.57;;;10.50;99.90;;;;;;5054207;28;20045;-68
2022/12/31 07:24:11;;;;;;;11.00;4.75;;;10.50;99.90;;;;;;5052802;28;20021;-67
2022/12/31 07:27:00;;;;;;;8.88;5.28;;;10.50;99.90;;;;;;5050421;28;20044;-68
2022/12/31 07:29:56;;;;;;;13.68;5.35;;;10.50;99.90;;;;;;5054621;28;20033;-67
2022/12/31 07:32:30;;;;;;;9.25;4.93;;;10.50;99.90;;;;;;5052884;28;20037;-68
2022/12/31 07:35:08;;;;;;;12.95;5.15;;;10.50;99.90;;;;;;5054569;28;20053;-69
2022/12/31 07:38:00;;;;;;;7.60;3.95;;;10.50;99.90;;;;;;5059878;28;20060;-70
2022/12/31 07:40:44;;;;;;;8.80;4.00;;;10.50;99.90;;;;;;5059454;28;20111;-69
2022/12/31 07:43:26;;;;;;;9.05;4.68;;;10.50;99.90;;;;;;5038856;28;20402;-70
2022/12/31 07:46:24;;;;;;;10.05;4.53;;;10.50;99.90;;;;;;5057210;28;20033;-69
2022/12/31 07:48:50;;;;;;;11.63;4.93;;;10.50;99.90;;;;;;5037962;28;20036;-69
2022/12/31 07:51:16;;;;;;;9.95;5.07;;;10.50;99.90;;;;;;5059150;28;20025;-68
2022/12/31 07:53:42;;;;;;;11.57;5.88;;;10.50;99.90;;;;;;5059500;28;20029;-68
2022/12/31 07:56:08;;;;;;;9.63;5.13;;;10.50;99.90;;;;;;5045177;28;20112;-69
2022/12/31 07:58:40;;;;;;;16.05;6.63;;;10.50;99.90;;;;;;5045450;28;20021;-67
2022/12/31 08:01:14;;;;;;;12.90;7.05;;;10.50;99.90;;;;;;5051926;28;20080;-68
2022/12/31 08:04:14;;;;;;;17.80;7.22;;;10.50;99.90;;;;;;5055987;28;20021;-68
2022/12/31 08:06:42;;;;;;;16.83;8.07;;;10.50;99.90;;;;;;5059726;28;20092;-68
2022/12/31 08:09:38;;;;;;;16.40;8.45;;;10.50;99.90;;;;;;5049834;28;20053;-68
2022/12/31 08:12:06;;;;;;;16.92;7.63;;;10.50;99.90;;;;;;5028382;28;20056;-69
2022/12/31 08:14:45;;;;;;;19.25;7.72;;;10.50;99.90;;;;;;5060495;28;20108;-68
2022/12/31 08:17:13;;;;;;;20.98;7.68;;;10.50;99.90;;;;;;5058808;28;20036;-68
2022/12/31 08:19:39;;;;;;;22.38;8.15;;;10.50;99.90;;;;;;5041708;28;20397;-70
2022/12/31 08:23:02;;;;;;;23.27;7.63;;;10.50;99.90;;;;;;5045419;28;20065;-71
2022/12/31 08:25:51;;;;;;;23.23;8.75;;;10.50;99.90;;;;;;4991060;28;20019;-70
2022/12/31 08:28:38;;;;;;;30.70;8.38;;;10.50;99.90;;;;;;4983156;28;20031;-70
2022/12/31 08:31:18;;;;;;;21.10;8.57;;;10.50;99.90;;;;;;5027613;28;20046;-69
2022/12/31 08:33:59;;;;;;;22.77;9.15;;;10.60;99.90;;;;;;5039936;28;20119;-71
2022/12/31 08:36:57;;;;;;;19.90;8.80;;;10.60;99.90;;;;;;5040426;28;20379;-70
2022/12/31 08:39:56;;;;;;;24.10;9.25;;;10.60;99.90;;;;;;5039266;28;20018;-71
2022/12/31 08:42:50;;;;;;;27.83;9.60;;;10.60;99.90;;;;;;5022934;28;20043;-70
2022/12/31 08:45:35;;;;;;;24.02;9.35;;;10.60;99.90;;;;;;5039801;28;20057;-69
2022/12/31 08:48:13;;;;;;;21.35;8.88;;;10.60;99.90;;;;;;5038632;28;20096;-71
2022/12/31 08:50:40;;;;;;;26.15;10.15;;;10.70;99.90;;;;;;5038613;28;20044;-70
2022/12/31 08:53:05;;;;;;;28.60;10.32;;;10.70;99.90;;;;;;5039134;28;20039;-70
2022/12/31 08:55:31;;;;;;;26.60;9.95;;;10.70;99.90;;;;;;5039824;28;20041;-70
2022/12/31 08:58:19;;;;;;;23.73;9.55;;;10.70;99.90;;;;;;5039838;28;20025;-69
2022/12/31 09:00:48;;;;;;;26.85;9.77;;;10.70;99.90;;;;;;5029559;28;20089;-70
2022/12/31 09:03:43;;;;;;;22.30;9.48;;;10.80;99.90;;;;;;5016917;28;20029;-69
2022/12/31 09:06:20;;;;;;;22.40;9.40;;;10.80;99.90;;;;;;5037759;28;20025;-70
2022/12/31 09:09:02;;;;;;;20.60;8.43;;;10.80;99.90;;;;;;5038238;28;20026;-69
2022/12/31 09:12:09;;;;;;;29.67;10.35;;;10.80;99.90;;;;;;5038891;28;20087;-69
2022/12/31 09:14:43;;;;;;;21.70;9.32;;;10.80;99.90;;;;;;4984785;28;20046;-69
2022/12/31 09:17:23;;;;;;;20.13;9.25;;;10.80;99.90;;;;;;4977100;28;20511;-70
2022/12/31 09:19:49;;;;;;;34.35;9.77;;;10.80;99.90;;;;;;5020386;28;20045;-70
2022/12/31 09:22:15;;;;;;;24.80;9.82;;;10.80;99.90;;;;;;5050883;28;20045;-70
2022/12/31 09:24:41;;;;;;;26.75;10.48;;;10.80;99.90;;;;;;5041031;28;20082;-70
2022/12/31 09:27:25;;;;;;;22.05;9.38;;;10.80;99.90;;;;;;5047782;28;20052;-69
2022/12/31 09:30:12;;;;;;;24.88;9.57;;;10.80;99.90;;;;;;5054378;28;20540;-70
2022/12/31 09:33:01;;;;;;;26.23;10.05;;;10.90;99.90;;;;;;5040481;28;20048;-71
2022/12/31 09:35:36;;;;;;;23.15;10.05;;;10.90;99.90;;;;;;5059148;28;20048;-70
2022/12/31 09:38:29;;;;;;;34.88;10.88;;;10.90;99.90;;;;;;5058340;28;20037;-70
2022/12/31 09:41:15;;;;;;;29.73;10.50;;;10.90;99.90;;;;;;5054395;28;20030;-69
2022/12/31 09:44:03;;;;;;;23.02;9.73;;;11.00;99.90;;;;;;5040083;28;20028;-70
2022/12/31 09:46:53;;;;;;;23.15;10.30;;;11.00;99.90;;;;;;5055594;28;20025;-70
2022/12/31 09:49:30;;;;;;;22.42;9.93;;;11.00;99.90;;;;;;5058072;28;20032;-69
2022/12/31 09:52:07;;;;;;;25.95;9.93;;;11.10;99.90;;;;;;5057005;28;20036;-70
2022/12/31 09:54:52;;;;;;;29.02;10.23;;;11.10;99.90;;;;;;5054525;28;20097;-70
2022/12/31 09:57:30;;;;;;;20.38;9.48;;;11.10;99.90;;;;;;5057963;28;20580;-69
2022/12/31 10:00:05;;;;;;;27.85;10.15;;;11.10;99.90;;;;;;5058389;28;20416;-69
2022/12/31 10:02:36;;;;;;;;;;;11.10;99.90;;;;;;5050144;28;20060;-70
2022/12/31 10:05:39;;;;;;;21.15;9.13;;;11.20;99.90;;;;;;5046267;28;19915;-70
2022/12/31 10:08:28;;;;;;;23.40;10.32;;;11.20;99.90;;;;;;5050493;28;20175;-69
2022/12/31 10:11:02;;;;;;;23.08;10.45;;;11.20;99.90;;;;;;5050453;28;20485;-70
2022/12/31 10:13:48;;;;;;;23.00;10.48;;;11.30;99.90;;;;;;5049008;28;20033;-71
2022/12/31 10:16:23;;;;;;;25.77;10.77;;;11.30;99.90;;;;;;5052397;28;20057;-68
2022/12/31 10:19:01;;;;;;;22.52;11.25;;;11.30;99.90;;;;;;5051570;28;20022;-70
2022/12/31 10:21:43;;;;;;;23.40;11.32;;;11.40;99.90;;;;;;5053687;28;20396;-70
2022/12/31 10:24:23;;;;;;;22.88;10.68;;;11.40;99.90;;;;;;5053823;28;20083;-71
2022/12/31 10:27:07;;;;;;;18.92;10.23;;;11.40;99.90;;;;;;5076809;28;20037;-69
2022/12/31 10:29:46;;;;;;;15.88;8.93;;;11.50;99.90;;;;;;5044438;28;20088;-69
2022/12/31 10:32:18;;;;;;;16.55;9.10;;;11.60;99.90;;;;;;5054256;28;20159;-69
2022/12/31 10:35:01;;;;;;;11.45;6.15;;;11.60;99.90;;;;;;5062716;28;20021;-72
2022/12/31 10:38:05;;;;;;;10.85;5.50;;;11.70;99.90;;;;;;5057193;28;20040;-69
2022/12/31 10:40:45;;;;;;;9.10;6.10;;;11.80;99.90;;;;;;5052836;28;20041;-71
2022/12/31 10:43:14;;;;;;;10.93;6.57;;;11.80;99.90;;;;;;5053385;28;20570;-69
2022/12/31 10:46:00;;;;;;;12.55;6.50;;;11.90;99.90;;;;;;5052859;28;20033;-69
2022/12/31 10:48:43;;;;;;;8.07;4.88;;;11.90;99.90;;;;;;5057402;28;20025;-69
2022/12/31 10:51:30;;;;;;;5.07;3.33;;;12.00;99.90;;;;;;5043608;28;20037;-70
2022/12/31 10:54:11;;;;;;;6.63;4.38;;;12.00;99.90;;;;;;5052874;28;20033;-70
2022/12/31 10:56:45;;;;;;;4.60;3.47;;;12.10;99.90;;;;;;5051945;28;20030;-70
2022/12/31 10:59:40;;;;;;;5.90;3.83;;;12.10;99.90;;;;;;5051439;28;20024;-69
2022/12/31 11:02:15;;;;;;;3.78;2.60;;;12.20;99.90;;;;;;5061377;28;20029;-69
2022/12/31 11:05:23;;;;;;;5.75;3.03;;;12.20;99.90;;;;;;5053562;28;20089;-72
2022/12/31 11:08:01;;;;;;;3.45;2.25;;;12.20;99.90;;;;;;5044069;28;20025;-71
2022/12/31 11:10:49;;;;;;;4.78;2.50;;;12.30;99.90;;;;;;5056286;28;21441;-70
2022/12/31 11:13:42;;;;;;;3.10;1.58;;;12.30;99.90;;;;;;5056939;28;20096;-73
2022/12/31 11:16:31;;;;;;;3.25;1.90;;;12.30;99.90;;;;;;5075157;28;20029;-72
2022/12/31 11:19:06;;;;;;;3.47;2.38;;;12.40;99.90;;;;;;5040336;28;20029;-71
2022/12/31 11:21:40;;;;;;;4.63;2.67;;;12.40;99.90;;;;;;5054550;28;20127;-71
2022/12/31 11:24:24;;;;;;;2.75;1.92;;;12.40;99.90;;;;;;5044648;28;20025;-74
2022/12/31 11:27:08;;;;;;;3.17;1.85;;;12.50;99.90;;;;;;5043537;28;20621;-71
2022/12/31 11:30:02;;;;;;;4.70;2.38;;;12.50;99.90;;;;;;5062138;28;20021;-74
2022/12/31 11:33:03;;;;;;;3.45;1.98;;;12.50;99.90;;;;;;5060006;28;20062;-73
2022/12/31 11:35:39;;;;;;;1.85;1.25;;;12.60;99.90;;;;;;5056207;28;20048;-73
2022/12/31 11:38:20;;;;;;;2.30;1.80;;;12.60;99.90;;;;;;5058140;28;20627;-74
2022/12/31 11:41:33;;;;;;;4.25;2.03;;;12.70;99.90;;;;;;5061886;28;20037;-74
2022/12/31 11:44:16;;;;;;;2.55;1.70;;;12.70;99.90;;;;;;5037681;28;20562;-70
2022/12/31 11:47:07;;;;;;;3.05;1.52;;;12.70;99.90;;;;;;5044496;28;20416;-70
2022/12/31 11:49:52;;;;;;;3.88;2.15;;;12.70;99.90;;;;;;5055042;28;20033;-71
2022/12/31 11:52:48;;;;;;;4.10;2.13;;;12.70;99.90;;;;;;5054420;28;20045;-69
2022/12/31 11:55:33;;;;;;;1.67;1.13;;;12.80;99.90;;;;;;5060010;28;20025;-71
2022/12/31 11:58:08;;;;;;;5.05;2.38;;;12.80;99.90;;;;;;5057385;28;20017;-70
2022/12/31 12:00:35;;;;;;;5.82;3.72;;;12.80;99.90;;;;;;5059230;28;20035;-74
2022/12/31 12:03:03;;;;;;;8.25;4.63;;;12.80;99.90;;;;;;5052263;28;20057;-72
2022/12/31 12:05:30;;;;;;;4.22;2.80;;;12.80;99.90;;;;;;5042046;28;20051;-72
2022/12/31 12:07:57;;;;;;;3.85;2.13;;;12.90;99.90;;;;;;5061323;28;20021;-73
2022/12/31 12:10:27;;;;;;;3.45;2.50;;;12.90;99.90;;;;;;5044266;28;20485;-73
2022/12/31 12:12:54;;;;;;;13.68;7.22;;;12.90;99.90;;;;;;5061186;28;20093;-73
2022/12/31 12:15:25;;;;;;;9.85;5.40;;;12.90;99.90;;;;;;5061285;28;20485;-72
2022/12/31 12:17:54;;;;;;;4.45;2.58;;;12.90;99.90;;;;;;5060575;28;20513;-70
2022/12/31 12:20:29;;;;;;;6.20;3.47;;;13.00;99.90;;;;;;5060761;28;20025;-72
2022/12/31 12:22:57;;;;;;;4.65;2.67;;;13.00;99.90;;;;;;5060693;28;20100;-73
2022/12/31 12:25:35;;;;;;;6.38;3.22;;;13.00;99.90;;;;;;5060127;28;20048;-71
2022/12/31 12:28:16;;;;;;;6.55;2.72;;;13.00;99.90;;;;;;5061373;28;20062;-70
2022/12/31 12:30:42;;;;;;;4.60;3.00;;;13.00;99.90;;;;;;5061090;28;20052;-73
2022/12/31 12:33:19;;;;;;;3.83;2.22;;;13.00;99.90;;;;;;5044424;28;20048;-71
2022/12/31 12:35:46;;;;;;;5.63;2.60;;;13.00;99.90;;;;;;5059054;28;20116;-72
2022/12/31 12:38:19;;;;;;;4.88;2.38;;;13.10;99.90;;;;;;5057925;28;20108;-72
2022/12/31 12:41:00;;;;;;;5.80;3.23;;;13.00;99.90;;;;;;5056372;28;20033;-68
2022/12/31 12:43:35;;;;;;;5.50;3.10;;;13.00;99.90;;;;;;5058651;28;20036;-68
2022/12/31 12:46:17;;;;;;;4.25;2.28;;;13.00;99.90;;;;;;5060518;28;20041;-69
2022/12/31 12:48:45;;;;;;;5.15;2.63;;;13.00;99.90;;;;;;5060250;28;20028;-72
2022/12/31 12:51:23;;;;;;;4.75;2.85;;;13.00;99.90;;;;;;5059311;28;20132;-72
2022/12/31 12:54:16;;;;;;;3.67;2.30;;;13.00;99.90;;;;;;5058995;28;20056;-70
2022/12/31 12:57:03;;;;;;;6.20;2.13;;;13.00;99.90;;;;;;5058864;28;20029;-73
2022/12/31 12:59:38;;;;;;;5.57;3.45;;;13.00;99.90;;;;;;5058805;28;20035;-70
2022/12/31 13:02:25;;;;;;;5.47;3.28;;;13.00;99.90;;;;;;5042497;28;20060;-73
2022/12/31 13:05:13;;;;;;;4.13;3.05;;;13.00;99.90;;;;;;5060150;28;20144;-69
2022/12/31 13:07:55;;;;;;;8.32;4.18;;;13.00;99.90;;;;;;5042019;28;20078;-72
2022/12/31 13:10:32;;;;;;;8.40;5.07;;;13.00;99.90;;;;;;5048357;28;20037;-72
2022/12/31 13:12:58;;;;;;;9.52;4.03;;;13.10;99.90;;;;;;5048838;28;20045;-72
2022/12/31 13:15:45;;;;;;;6.72;3.58;;;13.10;99.90;;;;;;5056978;28;20029;-72
2022/12/31 13:18:31;;;;;;;9.50;4.55;;;13.10;99.90;;;;;;5041215;28;20031;-72
2022/12/31 13:21:14;;;;;;;5.93;3.50;;;13.10;99.90;;;;;;5055466;28;20616;-71
2022/12/31 13:24:00;;;;;;;9.18;3.78;;;13.10;99.90;;;;;;5050382;28;20104;-72
2022/12/31 13:26:46;;;;;;;10.35;6.13;;;13.10;99.90;;;;;;5058284;28;20140;-70
2022/12/31 13:29:20;;;;;;;8.48;4.95;;;13.10;99.90;;;;;;5057799;28;20115;-71
2022/12/31 13:31:49;;;;;;;12.25;5.40;;;13.20;99.90;;;;;;5056570;28;20025;-72